createdAt,value
2023-05-01T00:02:02.718Z,74.27
2023-05-01T00:07:06.760Z,74.86
2023-05-01T00:12:12.279Z,74.11
2023-05-01T00:17:17.161Z,74.19
2023-05-01T00:22:21.990Z,74.85
2023-05-01T00:27:27.839Z,74.82
2023-05-01T00:32:33.213Z,75.68
2023-05-01T00:37:38.018Z,75.95
2023-05-01T00:42:43.359Z,76.95
2023-05-01T00:47:49.078Z,78.31
2023-05-01T00:52:54.205Z,79.12
2023-05-01T00:58:01.361Z,78.50
2023-05-01T01:03:06.380Z,78.28
2023-05-01T01:08:58.104Z,78.80
2023-05-01T01:14:18.183Z,78.47
2023-05-01T01:20:11.454Z,78.08
2023-05-01T01:25:50.779Z,78.18
2023-05-01T01:31:29.335Z,78.82
2023-05-01T01:36:39.973Z,79.18
2023-05-01T01:41:51.212Z,80.16
2023-05-01T01:46:55.947Z,80.90
2023-05-01T01:52:02.809Z,81.35
2023-05-01T01:57:14.460Z,81.82
2023-05-01T02:02:22.065Z,81.54
2023-05-01T02:07:27.444Z,82.05
2023-05-01T02:12:33.009Z,81.91
2023-05-01T02:17:38.980Z,81.18
2023-05-01T02:22:47.685Z,81.65
2023-05-01T02:28:08.689Z,82.34
2023-05-01T02:33:13.340Z,83.13
2023-05-01T02:38:18.412Z,83.26
2023-05-01T02:43:24.793Z,83.49
2023-05-01T02:48:31.087Z,83.50
2023-05-01T02:53:36.987Z,84.12
2023-05-01T02:58:51.449Z,84.25
2023-05-01T03:03:56.336Z,84.36
2023-05-01T03:09:03.255Z,84.26
2023-05-01T03:14:07.115Z,84.20
2023-05-01T03:19:11.675Z,83.79
2023-05-01T03:24:17.483Z,83.87
2023-05-01T03:29:23.003Z,84.31
2023-05-01T03:34:28.653Z,85.37
2023-05-01T03:39:32.715Z,86.07
2023-05-01T03:45:03.760Z,86.08
2023-05-01T03:50:09.990Z,85.93
2023-05-01T03:55:18.006Z,85.12
2023-05-01T04:00:27.990Z,85.08
2023-05-01T04:05:34.609Z,85.95
2023-05-01T04:10:42.346Z,87.06
2023-05-01T04:15:47.479Z,87.89
2023-05-01T04:20:52.739Z,86.10
2023-05-01T04:25:58.588Z,84.15
2023-05-01T04:31:05.405Z,82.47
2023-05-01T04:36:10.396Z,80.72
2023-05-01T04:41:14.622Z,79.29
2023-05-01T04:46:22.480Z,78.27
2023-05-01T04:51:28.643Z,76.90
2023-05-01T04:56:33.212Z,76.46
2023-05-01T05:01:39.000Z,76.50
2023-05-01T05:06:44.902Z,76.61
2023-05-01T05:11:54.325Z,77.38
2023-05-01T05:17:00.724Z,78.21
2023-05-01T05:22:05.962Z,78.60
2023-05-01T05:27:16.437Z,79.30
2023-05-01T05:32:21.552Z,79.72
2023-05-01T05:37:26.524Z,79.73
2023-05-01T05:42:32.270Z,79.59
2023-05-01T05:47:41.297Z,79.71
2023-05-01T05:52:45.527Z,79.17
2023-05-01T05:57:50.205Z,79.10
2023-05-01T06:02:54.375Z,79.11
2023-05-01T06:08:01.860Z,79.15
2023-05-01T06:13:13.787Z,78.99
2023-05-01T06:18:24.078Z,78.60
2023-05-01T06:23:28.699Z,78.23
2023-05-01T06:28:55.321Z,77.77
2023-05-01T06:34:00.325Z,77.48
2023-05-01T06:39:24.263Z,77.13
2023-05-01T06:44:31.507Z,76.14
2023-05-01T06:49:39.384Z,75.22
2023-05-01T06:54:44.913Z,75.20
2023-05-01T06:59:49.626Z,74.27
2023-05-01T07:04:54.277Z,73.93
2023-05-01T07:09:59.526Z,73.86
2023-05-01T07:15:05.619Z,73.05
2023-05-01T07:20:11.893Z,72.34
2023-05-01T07:25:16.826Z,72.06
2023-05-01T07:30:21.798Z,71.57
2023-05-01T07:35:26.869Z,71.47
2023-05-01T07:40:34.716Z,69.47
2023-05-01T07:45:39.948Z,69.05
2023-05-01T07:50:47.271Z,68.88
2023-05-01T07:55:51.863Z,67.70
2023-05-01T08:00:57.102Z,66.04
2023-05-01T08:06:01.994Z,64.95
2023-05-01T08:11:06.175Z,64.28
2023-05-01T08:16:10.218Z,64.02
2023-05-01T08:21:14.203Z,63.45
2023-05-01T08:26:20.293Z,63.14
2023-05-01T08:31:26.363Z,62.29
2023-05-01T08:36:31.960Z,61.86
2023-05-01T08:41:37.486Z,60.78
2023-05-01T08:46:54.859Z,60.22
2023-05-01T08:51:59.576Z,59.68
2023-05-01T08:57:05.168Z,59.47
2023-05-01T09:02:11.092Z,59.76
2023-05-01T09:07:15.550Z,59.30
2023-05-01T09:12:31.080Z,58.30
2023-05-01T09:17:37.383Z,57.46
2023-05-01T09:22:41.735Z,56.67
2023-05-01T09:27:46.804Z,56.01
2023-05-01T09:33:15.447Z,56.04
2023-05-01T09:38:21.285Z,55.85
2023-05-01T09:43:27.757Z,54.42
2023-05-01T09:48:35.931Z,53.96
2023-05-01T09:53:42.323Z,53.39
2023-05-01T09:58:47.767Z,52.67
2023-05-01T10:03:56.996Z,52.16
2023-05-01T10:09:01.029Z,52.38
2023-05-01T10:14:09.825Z,52.28
2023-05-01T10:19:15.516Z,51.12
2023-05-01T10:24:20.718Z,50.99
2023-05-01T10:29:25.553Z,50.43
2023-05-01T10:34:31.684Z,50.47
2023-05-01T10:39:38.297Z,50.32
2023-05-01T10:44:43.161Z,49.35
2023-05-01T10:50:09.078Z,49.26
2023-05-01T10:55:37.322Z,49.25
2023-05-01T11:00:42.692Z,47.92
2023-05-01T11:06:17.246Z,47.57
2023-05-01T11:11:23.071Z,46.48
2023-05-01T11:16:46.805Z,46.97
2023-05-01T11:21:51.456Z,46.50
2023-05-01T11:26:56.348Z,45.93
2023-05-01T11:32:02.223Z,45.51
2023-05-01T11:37:06.677Z,45.24
2023-05-01T11:42:11.036Z,44.51
2023-05-01T11:47:15.260Z,43.67
2023-05-01T11:52:21.981Z,44.29
2023-05-01T11:57:28.934Z,43.31
2023-05-01T12:02:34.238Z,43.32
2023-05-01T12:07:38.506Z,42.55
2023-05-01T12:12:42.648Z,42.20
2023-05-01T12:17:48.514Z,42.25
2023-05-01T12:22:52.826Z,42.17
2023-05-01T12:27:56.785Z,41.71
2023-05-01T12:33:01.438Z,40.89
2023-05-01T12:38:16.482Z,40.66
2023-05-01T12:43:22.557Z,39.24
2023-05-01T12:48:26.621Z,38.71
2023-05-01T12:53:30.751Z,38.54
2023-05-01T12:58:38.621Z,38.82
2023-05-01T13:03:44.344Z,37.89
2023-05-01T13:08:48.418Z,37.75
2023-05-01T13:13:52.143Z,37.68
2023-05-01T13:18:56.024Z,38.00
2023-05-01T13:24:01.359Z,37.77
2023-05-01T13:29:06.115Z,37.48
2023-05-01T13:34:09.785Z,36.78
2023-05-01T13:39:21.256Z,37.01
2023-05-01T13:44:25.313Z,36.85
2023-05-01T13:49:29.109Z,36.23
2023-05-01T13:54:33.108Z,36.35
2023-05-01T13:59:44.984Z,36.09
2023-05-01T14:04:49.416Z,36.11
2023-05-01T14:09:55.962Z,36.36
2023-05-01T14:15:03.895Z,36.20
2023-05-01T14:20:09.133Z,36.08
2023-05-01T14:25:23.395Z,35.67
2023-05-01T14:30:33.946Z,35.80
2023-05-01T14:35:43.450Z,35.56
2023-05-01T14:40:48.197Z,35.59
2023-05-01T14:45:55.631Z,35.69
2023-05-01T14:50:59.870Z,35.08
2023-05-01T14:56:03.970Z,34.91
2023-05-01T15:01:07.922Z,34.52
2023-05-01T15:06:12.059Z,34.34
2023-05-01T15:11:17.171Z,34.45
2023-05-01T15:16:21.391Z,34.49
2023-05-01T15:21:25.315Z,34.13
2023-05-01T15:26:29.200Z,34.39
2023-05-01T15:31:33.133Z,34.00
2023-05-01T15:36:37.228Z,33.79
2023-05-01T15:41:41.447Z,34.06
2023-05-01T15:46:51.287Z,34.16
2023-05-01T15:51:55.552Z,34.37
2023-05-01T15:57:02.785Z,34.25
2023-05-01T16:02:09.256Z,34.32
2023-05-01T16:07:15.505Z,34.54
2023-05-01T16:12:24.687Z,34.58
2023-05-01T16:17:28.549Z,34.83
2023-05-01T16:22:33.197Z,35.02
2023-05-01T16:27:41.874Z,35.11
2023-05-01T16:32:46.615Z,35.40
2023-05-01T16:37:50.454Z,35.79
2023-05-01T16:42:56.499Z,36.08
2023-05-01T16:48:04.858Z,36.32
2023-05-01T16:53:12.054Z,36.36
2023-05-01T16:58:17.552Z,35.93
2023-05-01T17:03:21.490Z,36.00
2023-05-01T17:08:26.006Z,35.78
2023-05-01T17:13:30.244Z,35.83
2023-05-01T17:18:35.030Z,35.41
2023-05-01T17:23:42.353Z,35.26
2023-05-01T17:28:46.432Z,34.97
2023-05-01T17:33:51.064Z,34.94
2023-05-01T17:38:55.256Z,34.99
2023-05-01T17:43:59.731Z,35.54
2023-05-01T17:49:04.381Z,36.08
2023-05-01T17:54:10.969Z,36.54
2023-05-01T17:59:19.605Z,37.10
2023-05-01T18:04:25.234Z,37.68
2023-05-01T18:09:29.540Z,38.66
2023-05-01T18:14:34.583Z,39.21
2023-05-01T18:19:39.804Z,39.96
2023-05-01T18:24:44.780Z,40.71
2023-05-01T18:29:58.835Z,41.35
2023-05-01T18:35:05.687Z,42.06
2023-05-01T18:40:24.857Z,42.74
2023-05-01T18:45:31.992Z,43.41
2023-05-01T18:50:39.328Z,44.19
2023-05-01T18:55:49.866Z,44.90
2023-05-01T19:00:59.186Z,45.63
2023-05-01T19:06:05.677Z,46.21
2023-05-01T19:11:11.296Z,46.74
2023-05-01T19:16:18.196Z,47.27
2023-05-01T19:21:24.725Z,47.68
2023-05-01T19:26:30.739Z,48.05
2023-05-01T19:31:36.930Z,48.45
2023-05-01T19:36:46.339Z,48.72
2023-05-01T19:41:54.523Z,49.06
2023-05-01T19:47:02.240Z,49.63
2023-05-01T19:52:11.625Z,50.21
2023-05-01T19:57:19.236Z,50.57
2023-05-01T20:02:23.921Z,51.16
2023-05-01T20:07:29.991Z,51.61
2023-05-01T20:12:37.978Z,52.33
2023-05-01T20:17:44.119Z,52.89
2023-05-01T20:22:53.726Z,53.58
2023-05-01T20:27:57.728Z,54.61
2023-05-01T20:33:04.400Z,55.43
2023-05-01T20:38:08.349Z,55.52
2023-05-01T20:43:12.923Z,55.97
2023-05-01T20:48:19.014Z,56.76
2023-05-01T20:53:22.906Z,57.45
2023-05-01T20:58:26.980Z,58.28
2023-05-01T21:03:31.271Z,58.76
2023-05-01T21:08:35.811Z,59.04
2023-05-01T21:13:40.564Z,59.32
2023-05-01T21:18:45.493Z,59.57
2023-05-01T21:23:51.393Z,59.62
2023-05-01T21:28:56.559Z,59.93
2023-05-01T21:34:05.713Z,61.02
2023-05-01T21:39:12.480Z,60.93
2023-05-01T21:44:18.027Z,61.36
2023-05-01T21:49:40.062Z,61.78
2023-05-01T21:54:44.426Z,61.85
2023-05-01T21:59:49.157Z,62.11
2023-05-01T22:04:57.289Z,62.39
2023-05-01T22:10:02.263Z,62.70
2023-05-01T22:15:09.121Z,62.89
2023-05-01T22:20:14.124Z,63.24
2023-05-01T22:25:18.500Z,63.60
2023-05-01T22:30:23.101Z,63.79
2023-05-01T22:35:27.155Z,64.01
2023-05-01T22:40:31.902Z,64.41
2023-05-01T22:45:41.260Z,64.67
2023-05-01T22:50:45.603Z,64.83
2023-05-01T22:55:50.050Z,65.29
2023-05-01T23:00:54.050Z,65.43
2023-05-01T23:05:58.895Z,65.55
2023-05-01T23:11:03.410Z,65.54
2023-05-01T23:16:08.223Z,65.84
2023-05-01T23:21:18.368Z,66.07
2023-05-01T23:26:29.469Z,66.76
2023-05-01T23:31:34.845Z,67.43
2023-05-01T23:36:46.860Z,67.93
2023-05-01T23:41:51.138Z,68.33
2023-05-01T23:46:57.044Z,68.55
2023-05-01T23:52:02.168Z,68.98
2023-05-01T23:57:07.144Z,69.01
